createdAt,value
2023-05-21T00:01:27.519Z,37.60
2023-05-21T00:03:55.460Z,37.50
2023-05-21T00:06:24.882Z,37.50
2023-05-21T00:08:53.119Z,37.40
2023-05-21T00:11:20.270Z,37.10
2023-05-21T00:13:47.986Z,36.70
2023-05-21T00:16:15.564Z,36.70
2023-05-21T00:18:42.740Z,36.90
2023-05-21T00:21:09.781Z,37.20
2023-05-21T00:23:37.758Z,37.50
2023-05-21T00:26:04.845Z,37.60
2023-05-21T00:28:34.625Z,37.60
2023-05-21T00:31:01.807Z,37.60
2023-05-21T00:33:29.490Z,37.70
2023-05-21T00:35:57.540Z,37.80
2023-05-21T00:38:27.909Z,37.70
2023-05-21T00:40:54.979Z,37.70
2023-05-21T00:43:26.193Z,37.70
2023-05-21T00:45:53.976Z,37.80
2023-05-21T00:48:21.263Z,37.80
2023-05-21T00:50:49.640Z,37.90
2023-05-21T00:53:19.407Z,37.80
2023-05-21T00:55:46.879Z,37.70
2023-05-21T00:58:14.364Z,37.60
2023-05-21T01:00:41.877Z,37.60
2023-05-21T01:03:09.360Z,37.60
2023-05-21T01:05:37.914Z,37.50
2023-05-21T01:08:08.283Z,37.50
2023-05-21T01:10:35.995Z,37.50
2023-05-21T01:13:03.300Z,37.50
2023-05-21T01:15:31.971Z,37.50
2023-05-21T01:18:01.586Z,37.50
2023-05-21T01:20:33.201Z,37.60
2023-05-21T01:23:02.407Z,37.50
2023-05-21T01:25:30.327Z,37.50
2023-05-21T01:27:59.080Z,37.40
2023-05-21T01:30:27.700Z,37.20
2023-05-21T01:33:04.982Z,37.30
2023-05-21T01:36:03.372Z,37.20
2023-05-21T01:38:40.301Z,37.20
2023-05-21T01:41:17.966Z,37.30
2023-05-21T01:43:47.030Z,37.30
2023-05-21T01:46:22.782Z,37.40
2023-05-21T01:48:54.320Z,37.30
2023-05-21T01:51:23.764Z,37.20
2023-05-21T01:53:50.911Z,37.30
2023-05-21T01:56:18.124Z,37.10
2023-05-21T01:58:47.487Z,37.00
2023-05-21T02:01:15.729Z,36.90
2023-05-21T02:03:45.110Z,36.70
2023-05-21T02:06:14.249Z,36.60
2023-05-21T02:08:41.592Z,36.90
2023-05-21T02:11:09.714Z,37.10
2023-05-21T02:13:43.539Z,37.30
2023-05-21T02:16:16.399Z,37.50
2023-05-21T02:18:44.667Z,37.60
2023-05-21T02:21:12.400Z,37.60
2023-05-21T02:23:42.801Z,37.60
2023-05-21T02:26:12.444Z,37.50
2023-05-21T02:28:41.177Z,37.60
2023-05-21T02:31:08.223Z,37.50
2023-05-21T02:33:35.332Z,37.70
2023-05-21T02:36:04.740Z,37.60
2023-05-21T02:38:34.376Z,37.40
2023-05-21T02:41:02.622Z,37.60
2023-05-21T02:43:29.589Z,37.50
2023-05-21T02:45:57.786Z,37.20
2023-05-21T02:48:25.936Z,36.90
2023-05-21T02:50:55.301Z,36.70
2023-05-21T02:53:23.780Z,36.70
2023-05-21T02:55:53.380Z,36.60
2023-05-21T02:58:23.773Z,36.70
2023-05-21T03:00:54.569Z,36.70
2023-05-21T03:03:23.178Z,36.20
2023-05-21T03:05:53.954Z,35.70
2023-05-21T03:08:22.848Z,35.40
2023-05-21T03:10:51.055Z,35.00
2023-05-21T03:13:19.302Z,35.00
2023-05-21T03:15:48.698Z,34.70
2023-05-21T03:18:18.006Z,35.10
2023-05-21T03:20:47.370Z,35.40
2023-05-21T03:23:16.842Z,35.80
2023-05-21T03:25:46.781Z,36.10
2023-05-21T03:28:16.137Z,36.30
2023-05-21T03:30:50.214Z,36.50
2023-05-21T03:33:18.173Z,36.90
2023-05-21T03:35:45.789Z,37.10
2023-05-21T03:38:15.159Z,37.40
2023-05-21T03:40:43.524Z,37.60
2023-05-21T03:43:11.378Z,37.70
2023-05-21T03:45:40.986Z,37.80
2023-05-21T03:48:09.891Z,37.90
2023-05-21T03:50:39.021Z,38.00
2023-05-21T03:53:08.318Z,38.10
2023-05-21T03:55:37.315Z,37.90
2023-05-21T03:58:05.855Z,37.70
2023-05-21T04:00:34.877Z,37.70
2023-05-21T04:03:05.170Z,37.70
2023-05-21T04:05:35.319Z,37.90
2023-05-21T04:08:03.420Z,37.80
2023-05-21T04:10:30.772Z,37.70
2023-05-21T04:12:59.263Z,37.50
2023-05-21T04:15:29.332Z,37.70
2023-05-21T04:17:59.311Z,37.90
2023-05-21T04:20:28.654Z,37.60
2023-05-21T04:22:55.708Z,37.50
2023-05-21T04:25:24.395Z,37.40
2023-05-21T04:27:55.379Z,37.40
2023-05-21T04:30:25.097Z,37.20
2023-05-21T04:32:55.518Z,37.20
2023-05-21T04:35:23.515Z,37.20
2023-05-21T04:37:52.661Z,37.60
2023-05-21T04:40:25.086Z,37.00
2023-05-21T04:42:53.317Z,37.00
2023-05-21T04:45:24.902Z,37.00
2023-05-21T04:47:52.734Z,36.90
2023-05-21T04:50:21.127Z,37.00
2023-05-21T04:52:49.822Z,37.10
2023-05-21T04:55:19.710Z,37.70
2023-05-21T04:57:48.944Z,37.80
2023-05-21T05:00:17.538Z,38.20
2023-05-21T05:02:46.164Z,37.70
2023-05-21T05:05:15.904Z,37.90
2023-05-21T05:07:45.240Z,38.20
2023-05-21T05:10:12.701Z,38.40
2023-05-21T05:12:40.985Z,39.00
2023-05-21T05:15:09.650Z,39.00
2023-05-21T05:17:38.134Z,39.60
2023-05-21T05:20:10.236Z,39.90
2023-05-21T05:22:39.588Z,39.80
2023-05-21T05:25:09.217Z,38.90
2023-05-21T05:27:38.490Z,38.50
2023-05-21T05:30:08.776Z,39.00
2023-05-21T05:32:38.231Z,38.70
2023-05-21T05:35:08.560Z,38.80
2023-05-21T05:37:36.863Z,38.90
2023-05-21T05:40:05.647Z,38.50
2023-05-21T05:42:35.049Z,38.40
2023-05-21T05:45:04.582Z,39.20
2023-05-21T05:47:33.999Z,38.20
2023-05-21T05:50:02.016Z,38.80
2023-05-21T05:52:29.661Z,38.20
2023-05-21T05:54:58.133Z,38.10
2023-05-21T05:57:27.440Z,37.60
2023-05-21T05:59:56.999Z,38.50
2023-05-21T06:02:26.612Z,36.90
2023-05-21T06:04:56.166Z,37.30
2023-05-21T06:07:24.398Z,38.70
2023-05-21T06:09:51.336Z,39.60
2023-05-21T06:12:20.664Z,40.20
2023-05-21T06:14:50.004Z,40.90
2023-05-21T06:17:18.416Z,41.10
2023-05-21T06:19:46.736Z,41.40
2023-05-21T06:22:15.477Z,41.00
2023-05-21T06:24:43.662Z,41.20
2023-05-21T06:27:12.638Z,40.70
2023-05-21T06:29:41.466Z,41.50
2023-05-21T06:32:11.049Z,42.20
2023-05-21T06:34:38.036Z,42.50
2023-05-21T06:37:06.489Z,42.10
2023-05-21T06:39:35.814Z,41.90
2023-05-21T06:42:04.934Z,41.30
2023-05-21T06:44:33.273Z,42.40
2023-05-21T06:47:02.522Z,43.30
2023-05-21T06:49:30.498Z,43.30
2023-05-21T06:51:59.082Z,42.60
2023-05-21T06:54:27.166Z,43.30
2023-05-21T06:56:56.841Z,43.30
2023-05-21T06:59:25.300Z,43.50
2023-05-21T07:01:52.395Z,44.00
2023-05-21T07:04:20.468Z,43.60
2023-05-21T07:06:48.714Z,43.70
2023-05-21T07:09:18.984Z,43.50
2023-05-21T07:11:47.511Z,43.20
2023-05-21T07:14:15.055Z,43.70
2023-05-21T07:16:43.456Z,44.20
2023-05-21T07:19:12.769Z,44.10
2023-05-21T07:21:41.495Z,43.80
2023-05-21T07:24:10.820Z,44.00
2023-05-21T07:26:38.354Z,43.50
2023-05-21T07:29:06.856Z,44.10
2023-05-21T07:31:34.008Z,44.10
2023-05-21T07:34:03.449Z,43.70
2023-05-21T07:36:34.493Z,43.90
2023-05-21T07:39:03.386Z,43.00
2023-05-21T07:41:33.161Z,43.10
2023-05-21T07:44:02.327Z,43.90
2023-05-21T07:46:30.888Z,43.80
2023-05-21T07:49:00.277Z,44.40
2023-05-21T07:51:28.910Z,44.30
2023-05-21T07:53:57.687Z,43.90
2023-05-21T07:56:27.142Z,43.50
2023-05-21T07:58:56.659Z,43.80
2023-05-21T08:01:26.179Z,44.70
2023-05-21T08:03:55.396Z,45.20
2023-05-21T08:06:25.169Z,46.00
2023-05-21T08:08:54.914Z,45.60
2023-05-21T08:11:23.710Z,46.50
2023-05-21T08:13:52.216Z,45.80
2023-05-21T08:16:20.317Z,44.60
2023-05-21T08:18:48.303Z,44.60
2023-05-21T08:21:17.664Z,44.80
2023-05-21T08:23:45.425Z,45.20
2023-05-21T08:26:17.080Z,45.00
2023-05-21T08:28:44.385Z,45.10
2023-05-21T08:31:13.135Z,44.90
2023-05-21T08:33:50.715Z,44.60
2023-05-21T08:36:20.157Z,43.90
2023-05-21T08:38:48.368Z,43.50
2023-05-21T08:41:19.866Z,43.00
2023-05-21T08:43:50.402Z,42.10
2023-05-21T08:46:23.523Z,43.10
2023-05-21T08:48:56.174Z,42.00
2023-05-21T08:51:24.176Z,42.40
2023-05-21T08:53:52.373Z,42.70
2023-05-21T08:56:22.003Z,43.30
2023-05-21T08:58:50.352Z,43.50
2023-05-21T09:01:19.796Z,43.90
2023-05-21T09:03:49.653Z,42.60
2023-05-21T09:06:17.388Z,42.10
2023-05-21T09:08:50.272Z,41.80
2023-05-21T09:11:20.092Z,42.80
2023-05-21T09:13:50.222Z,43.10
2023-05-21T09:16:18.773Z,42.40
2023-05-21T09:18:47.728Z,42.90
2023-05-21T09:21:29.392Z,43.00
2023-05-21T09:23:59.163Z,42.70
2023-05-21T09:26:27.397Z,41.90
2023-05-21T09:29:01.127Z,41.60
2023-05-21T09:31:31.277Z,42.40
2023-05-21T09:34:00.203Z,41.30
2023-05-21T09:36:30.457Z,41.70
2023-05-21T09:39:00.737Z,41.90
2023-05-21T09:41:36.320Z,41.20
2023-05-21T09:44:05.639Z,41.20
2023-05-21T09:46:59.258Z,41.30
2023-05-21T09:49:28.400Z,42.10
2023-05-21T09:51:58.440Z,43.00
2023-05-21T09:54:36.030Z,43.30
2023-05-21T09:57:03.738Z,43.30
2023-05-21T09:59:41.589Z,42.40
2023-05-21T10:02:23.353Z,41.50
2023-05-21T10:04:57.720Z,42.80
2023-05-21T10:07:27.493Z,43.40
2023-05-21T10:09:56.861Z,43.70
2023-05-21T10:12:29.343Z,41.80
2023-05-21T10:15:14.735Z,43.20
2023-05-21T10:17:45.599Z,43.90
2023-05-21T10:20:18.662Z,44.30
2023-05-21T10:22:48.281Z,45.70
2023-05-21T10:25:17.043Z,45.10
2023-05-21T10:27:46.046Z,45.00
2023-05-21T10:30:14.796Z,45.10
2023-05-21T10:32:44.332Z,43.80
2023-05-21T10:35:14.118Z,44.40
2023-05-21T10:37:45.782Z,44.20
2023-05-21T10:40:14.136Z,44.90
2023-05-21T10:42:58.305Z,44.90
2023-05-21T10:45:26.761Z,45.50
2023-05-21T10:48:36.552Z,45.50
2023-05-21T10:51:17.450Z,45.50
2023-05-21T10:53:52.801Z,45.90
2023-05-21T10:56:45.504Z,45.70
2023-05-21T10:59:31.642Z,47.00
2023-05-21T11:02:01.172Z,47.10
2023-05-21T11:04:30.168Z,46.60
2023-05-21T11:07:00.193Z,46.20
2023-05-21T11:09:28.464Z,46.60
2023-05-21T11:12:01.496Z,47.00
2023-05-21T11:14:59.285Z,46.30
2023-05-21T11:17:44.902Z,46.40
2023-05-21T11:20:16.747Z,46.70
2023-05-21T11:22:48.169Z,46.10
2023-05-21T11:25:16.800Z,45.20
2023-05-21T11:27:45.305Z,44.90
2023-05-21T11:30:23.821Z,45.50
2023-05-21T11:33:14.274Z,45.80
2023-05-21T11:35:54.696Z,44.80
2023-05-21T11:38:23.146Z,44.10
2023-05-21T11:40:55.806Z,44.80
2023-05-21T11:43:23.791Z,45.30
2023-05-21T11:45:53.385Z,45.90
2023-05-21T11:48:28.929Z,46.60
2023-05-21T11:50:58.937Z,47.10
2023-05-21T11:53:31.082Z,46.80
2023-05-21T11:56:02.807Z,46.70
2023-05-21T11:58:32.601Z,45.40
2023-05-21T12:01:01.220Z,45.40
2023-05-21T12:03:30.575Z,46.30
2023-05-21T12:06:06.314Z,45.70
2023-05-21T12:08:35.082Z,45.40
2023-05-21T12:11:02.748Z,44.70
2023-05-21T12:13:32.992Z,44.70
2023-05-21T12:16:01.694Z,44.10
2023-05-21T12:18:29.154Z,44.00
2023-05-21T12:20:58.020Z,44.20
2023-05-21T12:23:26.211Z,43.90
2023-05-21T12:25:55.494Z,44.30
2023-05-21T12:28:25.783Z,44.60
2023-05-21T12:30:53.898Z,45.00
2023-05-21T12:33:25.142Z,44.80
2023-05-21T12:35:54.931Z,45.10
2023-05-21T12:38:22.745Z,44.70
2023-05-21T12:40:52.062Z,44.70
2023-05-21T12:43:20.689Z,44.10
2023-05-21T12:45:47.956Z,44.20
2023-05-21T12:48:17.145Z,44.20
2023-05-21T12:50:45.641Z,45.10
2023-05-21T12:53:12.901Z,44.60
2023-05-21T12:55:40.758Z,44.50
2023-05-21T12:58:09.257Z,44.50
2023-05-21T13:00:39.907Z,43.70
2023-05-21T13:03:09.895Z,43.40
2023-05-21T13:05:42.638Z,42.60
2023-05-21T13:08:11.535Z,42.20
2023-05-21T13:10:39.714Z,42.60
2023-05-21T13:13:08.352Z,43.30
2023-05-21T13:15:36.793Z,43.70
2023-05-21T13:18:04.488Z,43.90
2023-05-21T13:20:31.581Z,42.10
2023-05-21T13:22:59.819Z,43.40
2023-05-21T13:25:29.207Z,43.30
2023-05-21T13:27:59.285Z,43.60
2023-05-21T13:30:27.923Z,44.20
2023-05-21T13:32:56.399Z,42.90
2023-05-21T13:35:27.124Z,43.30
2023-05-21T13:37:55.615Z,43.00
2023-05-21T13:40:24.500Z,43.00
2023-05-21T13:42:54.075Z,43.30
2023-05-21T13:45:21.559Z,42.30
2023-05-21T13:47:50.283Z,43.00
2023-05-21T13:50:19.479Z,42.60
2023-05-21T13:52:48.842Z,42.10
2023-05-21T13:55:16.719Z,43.00
2023-05-21T13:57:46.293Z,43.30
2023-05-21T14:00:16.388Z,42.30
2023-05-21T14:02:43.939Z,42.50
2023-05-21T14:05:12.760Z,43.00
2023-05-21T14:07:40.283Z,43.50
2023-05-21T14:10:08.516Z,43.10
2023-05-21T14:12:35.601Z,43.50
2023-05-21T14:15:02.608Z,44.20
2023-05-21T14:17:31.911Z,43.50
2023-05-21T14:20:00.593Z,42.80
2023-05-21T14:22:28.458Z,43.40
2023-05-21T14:24:57.495Z,42.70
2023-05-21T14:27:25.923Z,42.50
2023-05-21T14:29:54.384Z,42.40
2023-05-21T14:32:22.412Z,43.50
2023-05-21T14:34:52.244Z,44.70
2023-05-21T14:37:20.467Z,45.10
2023-05-21T14:39:48.643Z,45.20
2023-05-21T14:42:18.488Z,45.50
2023-05-21T14:44:47.184Z,45.50
2023-05-21T14:47:15.707Z,45.70
2023-05-21T14:49:42.694Z,45.20
2023-05-21T14:52:11.987Z,45.40
2023-05-21T14:54:39.189Z,45.50
2023-05-21T14:57:07.674Z,45.50
2023-05-21T14:59:36.953Z,45.20
2023-05-21T15:02:06.724Z,45.00
2023-05-21T15:04:33.970Z,45.20
2023-05-21T15:07:03.247Z,44.40
2023-05-21T15:09:31.475Z,44.20
2023-05-21T15:12:00.141Z,44.30
2023-05-21T15:14:29.168Z,44.20
2023-05-21T15:16:58.470Z,44.40
2023-05-21T15:19:26.265Z,44.60
2023-05-21T15:21:54.165Z,44.60
2023-05-21T15:24:22.801Z,44.80
2023-05-21T15:26:52.205Z,45.00
2023-05-21T15:29:21.303Z,45.10
2023-05-21T15:31:49.769Z,45.20
2023-05-21T15:34:18.630Z,44.40
2023-05-21T15:36:48.391Z,43.60
2023-05-21T15:39:16.032Z,43.90
2023-05-21T15:41:45.774Z,43.40
2023-05-21T15:44:15.406Z,43.10
2023-05-21T15:46:43.714Z,42.80
2023-05-21T15:49:11.848Z,42.80
2023-05-21T15:51:41.263Z,42.50
2023-05-21T15:54:09.068Z,42.30
2023-05-21T15:56:37.488Z,42.60
2023-05-21T15:59:06.821Z,42.60
2023-05-21T16:01:35.260Z,42.40
2023-05-21T16:04:04.136Z,42.40
2023-05-21T16:06:33.505Z,42.40
2023-05-21T16:09:02.785Z,42.60
2023-05-21T16:11:31.576Z,42.90
2023-05-21T16:14:00.721Z,43.20
2023-05-21T16:16:29.468Z,43.10
2023-05-21T16:18:58.058Z,42.30
2023-05-21T16:21:27.214Z,42.10
2023-05-21T16:23:56.969Z,42.60
2023-05-21T16:26:24.150Z,42.50
2023-05-21T16:28:51.852Z,42.10
2023-05-21T16:31:21.293Z,42.20
2023-05-21T16:33:50.705Z,42.20
2023-05-21T16:36:18.103Z,42.10
2023-05-21T16:38:46.554Z,41.80
2023-05-21T16:41:16.344Z,41.60
2023-05-21T16:43:46.092Z,41.90
2023-05-21T16:46:13.211Z,42.10
2023-05-21T16:48:42.166Z,42.40
2023-05-21T16:51:11.549Z,43.20
2023-05-21T16:53:40.531Z,43.80
2023-05-21T16:56:09.947Z,44.00
2023-05-21T16:58:39.390Z,43.80
2023-05-21T17:01:08.469Z,43.70
2023-05-21T17:03:36.591Z,43.50
2023-05-21T17:06:07.707Z,43.70
2023-05-21T17:08:36.880Z,43.60
2023-05-21T17:11:04.683Z,43.70
2023-05-21T17:13:33.325Z,43.90
2023-05-21T17:16:01.804Z,44.00
2023-05-21T17:18:31.996Z,43.90
2023-05-21T17:21:00.565Z,43.60
2023-05-21T17:23:28.748Z,43.80
2023-05-21T17:25:56.853Z,43.90
2023-05-21T17:28:24.808Z,43.60
2023-05-21T17:30:53.454Z,43.60
2023-05-21T17:33:21.809Z,43.80
2023-05-21T17:35:49.300Z,43.80
2023-05-21T17:38:17.452Z,43.60
2023-05-21T17:40:46.879Z,43.80
2023-05-21T17:43:15.682Z,44.00
2023-05-21T17:45:43.107Z,44.00
2023-05-21T17:48:12.429Z,43.90
2023-05-21T17:50:42.707Z,43.80
2023-05-21T17:53:13.585Z,43.90
2023-05-21T17:55:42.112Z,43.90
2023-05-21T17:58:13.769Z,43.80
2023-05-21T18:00:42.172Z,43.80
2023-05-21T18:03:09.649Z,43.80
2023-05-21T18:05:37.061Z,43.90
2023-05-21T18:08:07.036Z,43.80
2023-05-21T18:10:34.862Z,43.90
2023-05-21T18:13:02.854Z,43.80
2023-05-21T18:15:29.821Z,43.80
2023-05-21T18:17:59.105Z,43.70
2023-05-21T18:20:27.511Z,43.70
2023-05-21T18:22:57.567Z,43.70
2023-05-21T18:25:25.755Z,43.70
2023-05-21T18:27:53.960Z,43.60
2023-05-21T18:30:21.410Z,43.50
2023-05-21T18:32:49.748Z,43.40
2023-05-21T18:35:19.193Z,43.30
2023-05-21T18:37:49.192Z,43.30
2023-05-21T18:40:18.450Z,43.30
2023-05-21T18:42:46.727Z,43.10
2023-05-21T18:45:16.004Z,43.10
2023-05-21T18:47:45.229Z,43.00
2023-05-21T18:50:16.056Z,42.90
2023-05-21T18:52:44.492Z,42.80
2023-05-21T18:55:12.646Z,42.70
2023-05-21T18:57:42.109Z,42.80
2023-05-21T19:00:12.007Z,42.80
2023-05-21T19:02:47.393Z,42.80
2023-05-21T19:05:17.662Z,42.80
2023-05-21T19:07:44.959Z,42.90
2023-05-21T19:10:13.314Z,42.70
2023-05-21T19:12:42.804Z,42.70
2023-05-21T19:15:12.033Z,42.70
2023-05-21T19:17:40.492Z,42.60
2023-05-21T19:20:22.265Z,42.50
2023-05-21T19:22:52.014Z,42.30
2023-05-21T19:25:20.258Z,41.90
2023-05-21T19:27:49.651Z,41.40
2023-05-21T19:30:17.780Z,41.60
2023-05-21T19:32:46.391Z,41.60
2023-05-21T19:35:15.405Z,41.60
2023-05-21T19:37:44.651Z,41.00
2023-05-21T19:40:14.244Z,40.80
2023-05-21T19:42:43.619Z,40.80
2023-05-21T19:45:12.474Z,40.70
2023-05-21T19:47:41.656Z,40.70
2023-05-21T19:50:12.784Z,40.20
2023-05-21T19:52:41.412Z,40.00
2023-05-21T19:55:10.633Z,40.20
2023-05-21T19:57:40.119Z,40.00
2023-05-21T20:00:10.817Z,40.00
2023-05-21T20:02:39.171Z,40.00
2023-05-21T20:05:07.991Z,40.00
2023-05-21T20:07:36.940Z,40.10
2023-05-21T20:10:05.921Z,40.20
2023-05-21T20:12:34.924Z,40.00
2023-05-21T20:15:03.157Z,40.40
2023-05-21T20:17:34.986Z,40.20
2023-05-21T20:20:04.406Z,39.60
2023-05-21T20:22:32.023Z,39.60
2023-05-21T20:25:02.420Z,39.50
2023-05-21T20:27:30.912Z,39.30
2023-05-21T20:29:59.995Z,38.90
2023-05-21T20:32:29.433Z,38.80
2023-05-21T20:35:03.248Z,39.00
2023-05-21T20:37:35.879Z,38.60
2023-05-21T20:40:06.212Z,38.70
2023-05-21T20:42:35.992Z,38.80
2023-05-21T20:45:05.779Z,38.60
2023-05-21T20:47:33.983Z,38.90
2023-05-21T20:50:05.634Z,39.30
2023-05-21T20:52:33.651Z,39.50
2023-05-21T20:55:05.186Z,39.80
2023-05-21T20:57:34.676Z,40.00
2023-05-21T21:00:05.495Z,39.50
2023-05-21T21:02:33.991Z,39.30
2023-05-21T21:05:04.419Z,39.30
2023-05-21T21:07:34.700Z,39.50
2023-05-21T21:10:03.138Z,39.50
2023-05-21T21:12:32.044Z,39.50
2023-05-21T21:15:00.257Z,39.50
2023-05-21T21:17:29.566Z,39.20
2023-05-21T21:19:58.400Z,39.20
2023-05-21T21:22:27.691Z,39.40
2023-05-21T21:24:56.023Z,39.40
2023-05-21T21:27:24.778Z,38.90
2023-05-21T21:29:54.086Z,39.20
2023-05-21T21:32:22.653Z,39.20
2023-05-21T21:34:51.177Z,39.10
2023-05-21T21:37:19.497Z,39.50
2023-05-21T21:39:48.791Z,39.40
2023-05-21T21:42:18.612Z,39.20
2023-05-21T21:44:47.632Z,39.20
2023-05-21T21:47:16.327Z,39.30
2023-05-21T21:49:45.411Z,39.20
2023-05-21T21:52:15.122Z,39.30
2023-05-21T21:54:45.460Z,39.00
2023-05-21T21:57:15.127Z,39.20
2023-05-21T21:59:44.204Z,39.20
2023-05-21T22:02:13.070Z,39.30
2023-05-21T22:04:42.495Z,39.20
2023-05-21T22:07:18.460Z,38.80
2023-05-21T22:09:47.221Z,38.90
2023-05-21T22:12:17.385Z,38.60
2023-05-21T22:14:46.224Z,38.80
2023-05-21T22:17:14.210Z,39.00
2023-05-21T22:19:43.426Z,39.00
2023-05-21T22:22:12.562Z,39.10
2023-05-21T22:24:42.125Z,39.30
2023-05-21T22:27:10.461Z,39.30
2023-05-21T22:29:38.796Z,39.50
2023-05-21T22:32:07.767Z,39.60
2023-05-21T22:34:36.362Z,39.30
2023-05-21T22:37:05.800Z,39.10
2023-05-21T22:39:34.862Z,38.70
2023-05-21T22:42:03.715Z,37.40
2023-05-21T22:44:32.835Z,37.50
2023-05-21T22:47:01.539Z,36.80
2023-05-21T22:49:33.212Z,37.20
2023-05-21T22:52:05.898Z,37.20
2023-05-21T22:54:35.555Z,36.90
2023-05-21T22:57:04.693Z,37.50
2023-05-21T22:59:34.684Z,37.50
2023-05-21T23:02:03.603Z,38.10
2023-05-21T23:04:43.193Z,37.80
2023-05-21T23:07:14.741Z,38.20
2023-05-21T23:09:44.351Z,38.90
2023-05-21T23:12:14.322Z,38.90
2023-05-21T23:14:42.855Z,38.90
2023-05-21T23:17:11.997Z,39.40
2023-05-21T23:19:44.961Z,39.60
2023-05-21T23:22:14.772Z,39.40
2023-05-21T23:24:42.833Z,39.50
2023-05-21T23:27:11.250Z,39.20
2023-05-21T23:29:40.626Z,39.30
2023-05-21T23:32:10.334Z,39.00
2023-05-21T23:34:38.574Z,39.40
2023-05-21T23:37:05.672Z,39.60
2023-05-21T23:39:34.004Z,39.50
2023-05-21T23:42:03.381Z,38.90
2023-05-21T23:44:32.748Z,38.40
2023-05-21T23:47:02.104Z,38.60
2023-05-21T23:49:30.301Z,38.60
2023-05-21T23:52:00.765Z,38.30
2023-05-21T23:54:29.460Z,38.20
2023-05-21T23:56:58.747Z,38.10
2023-05-21T23:59:27.598Z,38.20
